Time;durP1;ratioP1;P1;durP2;ratioP2;P2;SDS_P1;SDS_P2;PMS_P1;PMS_P2;Temp;Humidity;BMP_temperature;BMP_pressure;BME280_temperature;BME280_humidity;BME280_pressure;Samples;Min_cycle;Max_cycle;Signal;HPM_P1;HPM_P2
2023/03/05 00:01:53;;;;;;;7.90;1.80;;;;;;;;;;5050061;28;20091;-77
2023/03/05 00:04:20;;;;;;;7.22;1.50;;;;;;;;;;5052198;28;20124;-77
2023/03/05 00:06:46;;;;;;;7.60;1.85;;;;;;;;;;5052866;28;20075;-77
2023/03/05 00:09:13;;;;;;;7.07;1.52;;;;;;;;;;5053607;28;20037;-77
2023/03/05 00:11:39;;;;;;;10.15;1.98;;;;;;;;;;5054043;28;20553;-77
2023/03/05 00:14:05;;;;;;;6.75;1.60;;;;;;;;;;5052588;28;20120;-77
2023/03/05 00:16:31;;;;;;;12.23;1.80;;;;;;;;;;5052877;28;20502;-77
2023/03/05 00:18:58;;;;;;;7.70;1.65;;;;;;;;;;5053124;28;20380;-77
2023/03/05 00:21:24;;;;;;;11.43;2.10;;;;;;;;;;5052180;28;20044;-76
2023/03/05 00:23:51;;;;;;;7.88;1.65;;;;;;;;;;5060094;28;20032;-76
2023/03/05 00:26:21;;;;;;;6.18;1.85;;;;;;;;;;5042101;28;20056;-78
2023/03/05 00:28:51;;;;;;;7.90;1.80;;;;;;;;;;5044987;28;20529;-77
2023/03/05 00:31:17;;;;;;;7.13;1.83;;;;;;;;;;5059509;28;20055;-77
2023/03/05 00:33:43;;;;;;;9.30;2.10;;;;;;;;;;5082882;28;20033;-77
2023/03/05 00:36:10;;;;;;;8.73;2.10;;;;;;;;;;5062998;28;20102;-77
2023/03/05 00:38:36;;;;;;;14.57;2.03;;;;;;;;;;5069094;28;20533;-77
2023/03/05 00:41:02;;;;;;;9.30;1.70;;;;;;;;;;5052466;28;20394;-77
2023/03/05 00:43:29;;;;;;;10.93;2.05;;;;;;;;;;5068055;28;20040;-77
2023/03/05 00:45:55;;;;;;;7.82;1.77;;;;;;;;;;5073468;28;20119;-77
2023/03/05 00:48:21;;;;;;;8.40;1.88;;;;;;;;;;5071923;28;20044;-76
2023/03/05 00:50:47;;;;;;;8.45;1.85;;;;;;;;;;5066838;28;20091;-77
2023/03/05 00:53:13;;;;;;;6.55;1.80;;;;;;;;;;5063141;28;20494;-77
2023/03/05 00:55:39;;;;;;;8.07;1.77;;;;;;;;;;5068539;28;20064;-76
2023/03/05 00:58:05;;;;;;;8.25;1.70;;;;;;;;;;5061157;28;20435;-77
2023/03/05 01:00:32;;;;;;;9.15;1.85;;;;;;;;;;5066806;28;20122;-77
2023/03/05 01:02:58;;;;;;;10.93;1.67;;;;;;;;;;5051884;28;20049;-77
2023/03/05 01:05:24;;;;;;;8.02;1.55;;;;;;;;;;5051429;28;20048;-77
2023/03/05 01:07:53;;;;;;;7.07;1.52;;;;;;;;;;5051926;28;20551;-77
2023/03/05 01:10:20;;;;;;;9.45;1.50;;;;;;;;;;5055366;28;20040;-77
2023/03/05 01:12:46;;;;;;;7.18;1.98;;;;;;;;;;5061376;28;20037;-77
2023/03/05 01:15:12;;;;;;;10.07;2.28;;;;;;;;;;5049345;28;20053;-77
2023/03/05 01:17:38;;;;;;;8.73;1.50;;;;;;;;;;5051175;28;20521;-77
2023/03/05 01:20:05;;;;;;;5.75;1.40;;;;;;;;;;5051353;28;20044;-76
2023/03/05 01:22:31;;;;;;;7.07;1.38;;;;;;;;;;5052450;28;20045;-76
2023/03/05 01:24:57;;;;;;;10.85;1.42;;;;;;;;;;5052395;28;20057;-77
2023/03/05 01:27:23;;;;;;;4.93;1.20;;;;;;;;;;5051099;28;20055;-77
2023/03/05 01:29:49;;;;;;;7.10;1.30;;;;;;;;;;5052770;28;20142;-76
2023/03/05 01:32:15;;;;;;;5.85;1.20;;;;;;;;;;5050980;28;20127;-76
2023/03/05 01:34:41;;;;;;;9.82;2.15;;;;;;;;;;5051186;28;20049;-77
2023/03/05 01:37:08;;;;;;;6.65;1.08;;;;;;;;;;5051189;28;20049;-77
2023/03/05 01:39:35;;;;;;;6.05;1.20;;;;;;;;;;5034489;28;20075;-77
2023/03/05 01:42:01;;;;;;;7.68;1.13;;;;;;;;;;5051214;28;20167;-77
2023/03/05 01:44:29;;;;;;;5.80;1.08;;;;;;;;;;5051410;28;20422;-77
2023/03/05 01:46:55;;;;;;;5.63;1.48;;;;;;;;;;5052289;28;20056;-76
2023/03/05 01:49:40;;;;;;;7.78;1.25;;;;;;;;;;5050538;28;20045;-76
2023/03/05 01:52:12;;;;;;;4.55;1.10;;;;;;;;;;5051636;28;20392;-77
2023/03/05 01:54:41;;;;;;;3.65;0.95;;;;;;;;;;5050972;28;20483;-77
2023/03/05 01:57:10;;;;;;;7.22;1.20;;;;;;;;;;5034186;28;20049;-76
2023/03/05 01:59:37;;;;;;;6.72;1.40;;;;;;;;;;5034117;28;20047;-77
2023/03/05 02:02:04;;;;;;;6.43;1.20;;;;;;;;;;5044341;28;20033;-77
2023/03/05 02:04:34;;;;;;;5.88;1.17;;;;;;;;;;5051829;28;20041;-76
2023/03/05 02:07:00;;;;;;;2.72;1.00;;;;;;;;;;5052277;28;20075;-76
2023/03/05 02:09:27;;;;;;;4.45;1.20;;;;;;;;;;5067831;28;20090;-76
2023/03/05 02:11:54;;;;;;;5.38;1.15;;;;;;;;;;5051038;28;20349;-77
2023/03/05 02:14:21;;;;;;;4.68;1.08;;;;;;;;;;5050863;28;20052;-77
2023/03/05 02:16:47;;;;;;;9.27;1.30;;;;;;;;;;5050920;28;20103;-77
2023/03/05 02:19:13;;;;;;;6.03;1.10;;;;;;;;;;5050907;28;20077;-77
2023/03/05 02:21:46;;;;;;;3.17;0.80;;;;;;;;;;5033977;28;20045;-77
2023/03/05 02:24:32;;;;;;;3.53;1.00;;;;;;;;;;5050823;28;20119;-77
2023/03/05 02:26:59;;;;;;;4.20;1.05;;;;;;;;;;5086092;28;20081;-76
2023/03/05 02:29:27;;;;;;;4.05;1.00;;;;;;;;;;5054757;28;20094;-77
2023/03/05 02:31:53;;;;;;;2.60;0.80;;;;;;;;;;5054515;28;20040;-76
2023/03/05 02:34:19;;;;;;;6.15;1.17;;;;;;;;;;5054800;28;20406;-76
2023/03/05 02:36:45;;;;;;;4.78;1.73;;;;;;;;;;5054030;28;20060;-76
2023/03/05 02:39:11;;;;;;;3.33;1.20;;;;;;;;;;5037930;28;20044;-77
2023/03/05 02:41:38;;;;;;;5.30;1.05;;;;;;;;;;5054497;28;20507;-77
2023/03/05 02:44:04;;;;;;;4.20;0.75;;;;;;;;;;5054622;28;20484;-76
2023/03/05 02:46:30;;;;;;;5.22;1.48;;;;;;;;;;5054339;28;20487;-76
2023/03/05 02:48:56;;;;;;;5.53;0.90;;;;;;;;;;5054146;28;20040;-76
2023/03/05 02:51:22;;;;;;;6.72;1.58;;;;;;;;;;5054277;28;20041;-77
2023/03/05 02:53:48;;;;;;;3.67;0.90;;;;;;;;;;5055137;28;20068;-77
2023/03/05 02:56:14;;;;;;;5.78;1.38;;;;;;;;;;5055409;28;20116;-75
2023/03/05 02:58:40;;;;;;;3.08;0.95;;;;;;;;;;5037397;28;20082;-76
2023/03/05 03:01:07;;;;;;;3.72;0.82;;;;;;;;;;5053020;28;20052;-77
2023/03/05 03:03:34;;;;;;;4.00;0.90;;;;;;;;;;5036556;28;20041;-76
2023/03/05 03:06:00;;;;;;;6.03;1.00;;;;;;;;;;5047367;28;20067;-76
2023/03/05 03:08:26;;;;;;;5.72;1.30;;;;;;;;;;5054136;28;20507;-76
2023/03/05 03:10:52;;;;;;;6.97;1.00;;;;;;;;;;5054648;28;20040;-77
2023/03/05 03:13:18;;;;;;;5.22;0.82;;;;;;;;;;5055026;28;20073;-77
2023/03/05 03:15:44;;;;;;;5.75;1.20;;;;;;;;;;5053323;28;20032;-77
2023/03/05 03:18:10;;;;;;;8.68;1.27;;;;;;;;;;5053575;28;20052;-77
2023/03/05 03:20:38;;;;;;;8.98;1.27;;;;;;;;;;5053556;28;20120;-77
2023/03/05 03:23:04;;;;;;;7.32;1.20;;;;;;;;;;5053784;28;20036;-76
2023/03/05 03:25:30;;;;;;;5.13;1.25;;;;;;;;;;5070249;28;20072;-77
2023/03/05 03:27:56;;;;;;;7.95;1.10;;;;;;;;;;5055025;28;20052;-77
2023/03/05 03:30:23;;;;;;;8.75;1.23;;;;;;;;;;5053951;28;20041;-77
2023/03/05 03:32:50;;;;;;;6.65;1.27;;;;;;;;;;5086694;28;20597;-76
2023/03/05 03:35:16;;;;;;;4.40;1.00;;;;;;;;;;5053184;28;20120;-76
2023/03/05 03:37:42;;;;;;;7.70;1.20;;;;;;;;;;5052693;28;20103;-77
2023/03/05 03:40:08;;;;;;;4.68;1.02;;;;;;;;;;5053280;28;20045;-77
2023/03/05 03:42:35;;;;;;;8.00;1.10;;;;;;;;;;5037010;28;20414;-77
2023/03/05 03:45:01;;;;;;;4.75;1.20;;;;;;;;;;5053490;28;20041;-77
2023/03/05 03:47:28;;;;;;;5.07;1.00;;;;;;;;;;5053263;28;20049;-78
2023/03/05 03:49:54;;;;;;;9.75;1.50;;;;;;;;;;5052910;28;20140;-77
2023/03/05 03:52:21;;;;;;;5.63;1.48;;;;;;;;;;5036562;28;20115;-77
2023/03/05 03:54:48;;;;;;;5.35;1.30;;;;;;;;;;5054145;28;20049;-77
2023/03/05 03:57:14;;;;;;;3.88;1.25;;;;;;;;;;5054160;28;20373;-77
2023/03/05 03:59:40;;;;;;;4.57;1.95;;;;;;;;;;5053055;28;20045;-77
2023/03/05 04:02:06;;;;;;;5.72;1.10;;;;;;;;;;5049524;28;20085;-77
2023/03/05 04:04:33;;;;;;;10.05;1.40;;;;;;;;;;5053241;28;20078;-77
2023/03/05 04:06:59;;;;;;;4.47;1.67;;;;;;;;;;5036144;28;20070;-77
2023/03/05 04:09:25;;;;;;;10.00;1.30;;;;;;;;;;5053270;28;20041;-77
2023/03/05 04:11:51;;;;;;;7.43;1.30;;;;;;;;;;5052729;28;20499;-76
2023/03/05 04:14:17;;;;;;;7.00;1.35;;;;;;;;;;5052897;28;20410;-76
2023/03/05 04:16:43;;;;;;;3.63;1.33;;;;;;;;;;5052629;28;20558;-76
2023/03/05 04:19:09;;;;;;;6.38;1.30;;;;;;;;;;5053704;28;20055;-76
2023/03/05 04:21:35;;;;;;;5.47;1.88;;;;;;;;;;5052596;28;20041;-76
2023/03/05 04:24:01;;;;;;;7.82;1.70;;;;;;;;;;5061990;28;20047;-76
2023/03/05 04:26:27;;;;;;;5.15;1.65;;;;;;;;;;5059008;28;20060;-77
2023/03/05 04:28:54;;;;;;;9.15;1.60;;;;;;;;;;5052792;28;20514;-77
2023/03/05 04:31:20;;;;;;;7.13;1.55;;;;;;;;;;5052745;28;20503;-76
2023/03/05 04:33:46;;;;;;;10.90;1.70;;;;;;;;;;5052050;28;20063;-77
2023/03/05 04:36:12;;;;;;;5.57;1.42;;;;;;;;;;5052316;28;20128;-77
2023/03/05 04:38:38;;;;;;;5.78;1.40;;;;;;;;;;5052270;28;20053;-76
2023/03/05 04:41:04;;;;;;;7.97;1.70;;;;;;;;;;5053529;28;20492;-77
2023/03/05 04:43:30;;;;;;;4.38;1.40;;;;;;;;;;5053436;28;20044;-77
2023/03/05 04:45:57;;;;;;;3.95;1.50;;;;;;;;;;5035418;28;20560;-77
2023/03/05 04:48:23;;;;;;;5.68;1.55;;;;;;;;;;5051911;28;20041;-77
2023/03/05 04:50:49;;;;;;;6.28;1.67;;;;;;;;;;5050875;28;20456;-77
2023/03/05 04:53:15;;;;;;;8.73;1.63;;;;;;;;;;5052693;28;20055;-77
2023/03/05 04:55:42;;;;;;;4.63;1.35;;;;;;;;;;5051928;28;20124;-76
2023/03/05 04:58:08;;;;;;;4.55;1.48;;;;;;;;;;5051867;28;20503;-76
2023/03/05 05:00:34;;;;;;;4.47;1.40;;;;;;;;;;5051402;28;20041;-76
2023/03/05 05:03:00;;;;;;;7.45;1.73;;;;;;;;;;5082418;28;20051;-77
2023/03/05 05:05:27;;;;;;;4.32;1.40;;;;;;;;;;5059407;28;20439;-76
2023/03/05 05:07:55;;;;;;;3.10;1.38;;;;;;;;;;5034863;28;20036;-76
2023/03/05 05:10:21;;;;;;;9.25;1.40;;;;;;;;;;5051872;28;20544;-78
2023/03/05 05:12:47;;;;;;;3.55;1.27;;;;;;;;;;5052680;28;20070;-77
2023/03/05 05:15:13;;;;;;;5.68;1.30;;;;;;;;;;5052740;28;20040;-77
2023/03/05 05:17:39;;;;;;;6.25;1.42;;;;;;;;;;5052805;28;20056;-77
2023/03/05 05:20:07;;;;;;;3.58;1.30;;;;;;;;;;5034608;28;20072;-77
2023/03/05 05:22:33;;;;;;;4.80;1.52;;;;;;;;;;5051359;28;20041;-77
2023/03/05 05:24:59;;;;;;;6.68;1.27;;;;;;;;;;5052554;28;20061;-77
2023/03/05 05:27:25;;;;;;;5.90;1.60;;;;;;;;;;5051382;28;20150;-77
2023/03/05 05:29:51;;;;;;;8.27;1.60;;;;;;;;;;5051327;28;20048;-77
2023/03/05 05:32:18;;;;;;;5.03;1.40;;;;;;;;;;5052778;28;20044;-77
2023/03/05 05:34:44;;;;;;;6.85;1.48;;;;;;;;;;5051635;28;20120;-77
2023/03/05 05:37:10;;;;;;;7.40;1.13;;;;;;;;;;5050825;28;20045;-77
2023/03/05 05:39:36;;;;;;;5.90;1.20;;;;;;;;;;5052636;28;20033;-77
2023/03/05 05:42:02;;;;;;;12.45;1.58;;;;;;;;;;5051049;28;20041;-77
2023/03/05 05:44:28;;;;;;;6.45;1.13;;;;;;;;;;5052520;28;20048;-77
2023/03/05 05:46:54;;;;;;;7.85;1.65;;;;;;;;;;5050570;28;20049;-77
2023/03/05 05:49:21;;;;;;;4.75;1.23;;;;;;;;;;5052215;28;20037;-77
2023/03/05 05:51:47;;;;;;;3.47;1.20;;;;;;;;;;5051678;28;20460;-77
2023/03/05 05:54:13;;;;;;;6.47;1.45;;;;;;;;;;5050756;28;20128;-77
2023/03/05 05:56:40;;;;;;;7.80;1.60;;;;;;;;;;5050914;28;20048;-77
2023/03/05 05:59:06;;;;;;;10.82;1.80;;;;;;;;;;5050735;28;20494;-77
2023/03/05 06:01:32;;;;;;;7.10;1.23;;;;;;;;;;5049738;28;20116;-77
2023/03/05 06:03:58;;;;;;;7.13;1.45;;;;;;;;;;5057451;28;20068;-76
2023/03/05 06:06:25;;;;;;;7.03;1.38;;;;;;;;;;5057644;28;20033;-76
2023/03/05 06:08:52;;;;;;;4.82;1.30;;;;;;;;;;5058886;28;20090;-77
2023/03/05 06:11:18;;;;;;;6.30;1.25;;;;;;;;;;5057443;28;20040;-77
2023/03/05 06:13:45;;;;;;;4.43;1.20;;;;;;;;;;5058620;28;20032;-77
2023/03/05 06:16:15;;;;;;;5.45;1.35;;;;;;;;;;5058365;28;20041;-76
2023/03/05 06:18:42;;;;;;;3.90;1.20;;;;;;;;;;5040685;28;20052;-77
2023/03/05 06:21:10;;;;;;;7.15;1.00;;;;;;;;;;5056798;28;20076;-76
2023/03/05 06:23:36;;;;;;;8.55;1.13;;;;;;;;;;5057997;28;20383;-76
2023/03/05 06:26:03;;;;;;;5.10;0.98;;;;;;;;;;5056946;28;20136;-76
2023/03/05 06:28:30;;;;;;;7.28;1.10;;;;;;;;;;5058419;28;20048;-76
2023/03/05 06:31:00;;;;;;;7.60;1.42;;;;;;;;;;5057581;28;20487;-76
2023/03/05 06:33:26;;;;;;;5.35;1.10;;;;;;;;;;5058600;28;20083;-76
2023/03/05 06:35:53;;;;;;;5.13;1.35;;;;;;;;;;5057288;28;20121;-76
2023/03/05 06:38:19;;;;;;;10.65;1.30;;;;;;;;;;5056995;28;20047;-76
2023/03/05 06:40:45;;;;;;;5.55;1.02;;;;;;;;;;5043328;28;20073;-76
2023/03/05 06:43:11;;;;;;;5.75;1.15;;;;;;;;;;5056999;28;20049;-76
2023/03/05 06:45:37;;;;;;;4.35;0.90;;;;;;;;;;5058541;28;20582;-76
2023/03/05 06:48:03;;;;;;;4.97;1.25;;;;;;;;;;5057191;28;20033;-76
2023/03/05 06:50:29;;;;;;;5.45;1.38;;;;;;;;;;5057123;28;20044;-76
2023/03/05 06:52:55;;;;;;;4.18;1.10;;;;;;;;;;5058504;28;20037;-76
2023/03/05 06:55:21;;;;;;;4.28;1.10;;;;;;;;;;5056904;28;20045;-77
2023/03/05 06:57:48;;;;;;;5.40;1.13;;;;;;;;;;5056858;28;20045;-76
2023/03/05 07:00:14;;;;;;;4.63;1.25;;;;;;;;;;5058101;28;20033;-76
2023/03/05 07:02:40;;;;;;;7.05;1.15;;;;;;;;;;5057114;28;20133;-77
2023/03/05 07:05:06;;;;;;;4.68;1.10;;;;;;;;;;5056862;28;20051;-77
2023/03/05 07:07:33;;;;;;;3.72;1.20;;;;;;;;;;5058050;28;20048;-77
2023/03/05 07:09:59;;;;;;;5.55;1.23;;;;;;;;;;5058307;28;20552;-77
2023/03/05 07:12:25;;;;;;;6.65;1.00;;;;;;;;;;5056064;28;20029;-76
2023/03/05 07:14:51;;;;;;;4.82;1.17;;;;;;;;;;5053505;28;20040;-76
2023/03/05 07:17:18;;;;;;;5.78;0.95;;;;;;;;;;5053416;28;20053;-77
2023/03/05 07:19:44;;;;;;;6.05;1.10;;;;;;;;;;5053698;28;20032;-76
2023/03/05 07:22:10;;;;;;;3.40;1.13;;;;;;;;;;5053355;28;20041;-77
2023/03/05 07:24:36;;;;;;;6.63;1.02;;;;;;;;;;5053580;28;20037;-78
2023/03/05 07:27:02;;;;;;;4.65;1.00;;;;;;;;;;5053229;28;20408;-78
2023/03/05 07:29:28;;;;;;;5.50;1.08;;;;;;;;;;5053591;28;20041;-78
2023/03/05 07:31:54;;;;;;;8.88;1.05;;;;;;;;;;5054696;28;20044;-78
2023/03/05 07:34:21;;;;;;;4.50;1.13;;;;;;;;;;5054765;28;20037;-78
2023/03/05 07:36:51;;;;;;;7.63;1.35;;;;;;;;;;5053341;28;20045;-78
2023/03/05 07:39:18;;;;;;;3.90;0.98;;;;;;;;;;5054292;28;20106;-78
2023/03/05 07:41:44;;;;;;;5.90;1.20;;;;;;;;;;5053630;28;20049;-78
2023/03/05 07:44:10;;;;;;;6.47;0.90;;;;;;;;;;5053461;28;20045;-78
2023/03/05 07:46:36;;;;;;;4.57;1.00;;;;;;;;;;5053428;28;20045;-78
2023/03/05 07:49:02;;;;;;;4.05;1.00;;;;;;;;;;5054602;28;20558;-77
2023/03/05 07:51:28;;;;;;;2.42;0.82;;;;;;;;;;5058520;28;20041;-77
2023/03/05 07:53:56;;;;;;;3.17;1.02;;;;;;;;;;5083939;28;20052;-77
2023/03/05 07:56:23;;;;;;;5.22;1.30;;;;;;;;;;5053250;28;20495;-77
2023/03/05 07:58:50;;;;;;;8.00;1.70;;;;;;;;;;5052814;28;20048;-77
2023/03/05 08:01:16;;;;;;;7.05;1.52;;;;;;;;;;5054206;28;20041;-77
2023/03/05 08:03:42;;;;;;;7.25;1.50;;;;;;;;;;5053427;28;20044;-77
2023/03/05 08:06:09;;;;;;;7.07;1.60;;;;;;;;;;5053178;28;20506;-77
2023/03/05 08:08:35;;;;;;;5.63;1.35;;;;;;;;;;5052754;28;20045;-78
2023/03/05 08:11:05;;;;;;;5.72;1.13;;;;;;;;;;5052925;28;20063;-77
2023/03/05 08:13:31;;;;;;;3.45;0.80;;;;;;;;;;5053869;28;20403;-78
2023/03/05 08:15:57;;;;;;;3.80;0.90;;;;;;;;;;5052936;28;20041;-78
2023/03/05 08:18:23;;;;;;;5.95;1.00;;;;;;;;;;5052362;28;20051;-78
2023/03/05 08:20:49;;;;;;;7.10;1.20;;;;;;;;;;5052569;28;20041;-78
2023/03/05 08:23:15;;;;;;;7.68;1.05;;;;;;;;;;5051978;28;20045;-78
2023/03/05 08:25:41;;;;;;;8.13;1.13;;;;;;;;;;5052477;28;20140;-78
2023/03/05 08:28:08;;;;;;;6.00;1.33;;;;;;;;;;5053642;28;20122;-78
2023/03/05 08:30:34;;;;;;;4.75;0.90;;;;;;;;;;5052298;28;20065;-78
2023/03/05 08:33:00;;;;;;;5.10;1.10;;;;;;;;;;5052664;28;20433;-78
2023/03/05 08:35:26;;;;;;;6.63;1.30;;;;;;;;;;5049625;28;20404;-79
2023/03/05 08:37:52;;;;;;;7.05;1.13;;;;;;;;;;5046628;28;20131;-79
2023/03/05 08:40:19;;;;;;;7.22;1.25;;;;;;;;;;5069455;28;20547;-79
2023/03/05 08:42:45;;;;;;;8.20;1.17;;;;;;;;;;5053618;28;20479;-78
2023/03/05 08:45:11;;;;;;;6.55;1.15;;;;;;;;;;5035780;28;20041;-79
2023/03/05 08:47:37;;;;;;;4.93;1.20;;;;;;;;;;5069182;28;20041;-79
2023/03/05 08:50:04;;;;;;;8.77;1.23;;;;;;;;;;5051780;28;21794;-78
2023/03/05 08:52:30;;;;;;;4.63;0.90;;;;;;;;;;5052231;28;20426;-79
2023/03/05 08:54:56;;;;;;;5.20;1.05;;;;;;;;;;5035210;28;20075;-79
2023/03/05 08:57:22;;;;;;;5.32;1.23;;;;;;;;;;5051866;28;20049;-79
2023/03/05 08:59:48;;;;;;;6.53;1.27;;;;;;;;;;5053101;28;20403;-78
2023/03/05 09:02:14;;;;;;;4.78;1.13;;;;;;;;;;5039676;28;20041;-78
2023/03/05 09:04:40;;;;;;;6.70;1.35;;;;;;;;;;5051870;28;20142;-78
2023/03/05 09:07:06;;;;;;;7.57;1.75;;;;;;;;;;5053013;28;20124;-78
2023/03/05 09:09:33;;;;;;;4.72;0.80;;;;;;;;;;5051404;28;20090;-78
2023/03/05 09:12:00;;;;;;;5.15;0.88;;;;;;;;;;5053232;28;20098;-78
2023/03/05 09:14:27;;;;;;;3.30;0.82;;;;;;;;;;5051704;28;20503;-78
2023/03/05 09:16:54;;;;;;;4.40;1.00;;;;;;;;;;5051414;28;20111;-79
2023/03/05 09:19:20;;;;;;;5.90;1.00;;;;;;;;;;5051184;28;20037;-79
2023/03/05 09:21:46;;;;;;;6.25;1.25;;;;;;;;;;5052931;28;20120;-79
2023/03/05 09:24:12;;;;;;;8.10;1.20;;;;;;;;;;5051284;28;20048;-78
2023/03/05 09:26:39;;;;;;;4.68;1.10;;;;;;;;;;5052292;28;20415;-76
2023/03/05 09:29:07;;;;;;;9.27;1.25;;;;;;;;;;5051405;28;20041;-77
2023/03/05 09:31:33;;;;;;;4.65;1.00;;;;;;;;;;5018640;28;20100;-77
2023/03/05 09:33:59;;;;;;;7.85;1.33;;;;;;;;;;5051615;28;20395;-77
2023/03/05 09:36:26;;;;;;;5.47;1.20;;;;;;;;;;5048787;28;20045;-77
2023/03/05 09:38:52;;;;;;;9.45;1.23;;;;;;;;;;5039394;28;20561;-79
2023/03/05 09:41:36;;;;;;;5.55;1.17;;;;;;;;;;5051235;28;20411;-78
2023/03/05 09:44:11;;;;;;;7.50;1.15;;;;;;;;;;5051540;28;20033;-79
2023/03/05 09:46:42;;;;;;;4.15;1.00;;;;;;;;;;5034311;28;20605;-79
2023/03/05 09:49:23;;;;;;;8.00;1.20;;;;;;;;;;5051055;28;20079;-78
2023/03/05 09:51:51;;;;;;;5.43;1.33;;;;;;;;;;5051375;28;20120;-77
2023/03/05 09:54:39;;;;;;;4.82;0.93;;;;;;;;;;5051206;28;20554;-79
2023/03/05 09:57:10;;;;;;;7.97;1.02;;;;;;;;;;5051089;28;20107;-79
2023/03/05 09:59:46;;;;;;;6.00;0.98;;;;;;;;;;5050912;28;20037;-79
2023/03/05 10:02:16;;;;;;;6.20;0.85;;;;;;;;;;5039523;28;20519;-79
2023/03/05 10:05:03;;;;;;;8.13;0.98;;;;;;;;;;5050723;28;20045;-77
2023/03/05 10:07:40;;;;;;;5.80;0.88;;;;;;;;;;5021514;28;20049;-79
2023/03/05 10:10:26;;;;;;;8.15;1.33;;;;;;;;;;5051089;28;20498;-79
2023/03/05 10:12:59;;;;;;;4.75;0.98;;;;;;;;;;5045156;28;20041;-79
2023/03/05 10:15:29;;;;;;;4.60;1.20;;;;;;;;;;5052041;28;20045;-79
2023/03/05 10:18:05;;;;;;;4.18;0.80;;;;;;;;;;5050848;28;20072;-78
2023/03/05 10:20:31;;;;;;;;;;;;;;;;;;5051021;28;20045;-79
2023/03/05 10:23:17;;;;;;;7.32;0.77;;;;;;;;;;5052301;28;20062;-78
2023/03/05 10:25:43;;;;;;;;;;;;;;;;;;5038914;28;20090;-77
2023/03/05 10:28:16;;;;;;;6.47;0.90;;;;;;;;;;5050949;28;19920;-77
2023/03/05 10:30:48;;;;;;;4.40;0.70;;;;;;;;;;5050434;28;20049;-77
2023/03/05 10:33:20;;;;;;;4.63;0.75;;;;;;;;;;5052314;28;20410;-77
2023/03/05 10:35:50;;;;;;;6.78;0.93;;;;;;;;;;5050355;28;20049;-78
2023/03/05 10:38:16;;;;;;;4.68;0.75;;;;;;;;;;5050784;28;20080;-78
2023/03/05 10:40:45;;;;;;;3.65;0.77;;;;;;;;;;5050354;28;20485;-78
2023/03/05 10:43:17;;;;;;;5.78;1.33;;;;;;;;;;5050784;28;20044;-78
2023/03/05 10:45:47;;;;;;;4.28;0.98;;;;;;;;;;5051911;28;20053;-79
2023/03/05 10:48:32;;;;;;;4.63;0.80;;;;;;;;;;5034727;28;20044;-78
2023/03/05 10:51:25;;;;;;;4.65;0.90;;;;;;;;;;5054224;28;20059;-79
2023/03/05 10:53:57;;;;;;;6.82;0.80;;;;;;;;;;5018708;28;20049;-78
2023/03/05 10:56:24;;;;;;;4.50;0.90;;;;;;;;;;5054091;28;20045;-79
2023/03/05 10:58:51;;;;;;;8.63;1.02;;;;;;;;;;5054126;28;20488;-78
2023/03/05 11:01:17;;;;;;;6.25;0.80;;;;;;;;;;5054382;28;20063;-79
2023/03/05 11:03:43;;;;;;;4.40;0.80;;;;;;;;;;5054273;28;20454;-77
2023/03/05 11:06:12;;;;;;;6.05;0.85;;;;;;;;;;5054390;28;20422;-78
2023/03/05 11:08:38;;;;;;;4.47;0.80;;;;;;;;;;5053614;28;20045;-78
2023/03/05 11:11:05;;;;;;;4.43;0.77;;;;;;;;;;5054258;28;20460;-79
2023/03/05 11:13:32;;;;;;;2.70;0.80;;;;;;;;;;5055071;28;20080;-80
2023/03/05 11:16:00;;;;;;;5.72;0.80;;;;;;;;;;5055175;28;20056;-80
2023/03/05 11:18:30;;;;;;;5.47;0.68;;;;;;;;;;5054971;28;20044;-80
2023/03/05 11:21:06;;;;;;;4.45;0.90;;;;;;;;;;5055208;28;20376;-80
2023/03/05 11:23:32;;;;;;;4.53;0.70;;;;;;;;;;5036969;28;20048;-78
2023/03/05 11:25:59;;;;;;;4.15;0.70;;;;;;;;;;5036792;28;20418;-77
2023/03/05 11:28:32;;;;;;;4.07;0.85;;;;;;;;;;5053474;28;20051;-77
2023/03/05 11:31:01;;;;;;;4.90;0.77;;;;;;;;;;5053424;28;20041;-76
2023/03/05 11:33:27;;;;;;;6.82;0.85;;;;;;;;;;5053685;28;20056;-79
2023/03/05 11:36:08;;;;;;;6.35;0.90;;;;;;;;;;5054624;28;20033;-79
2023/03/05 11:38:43;;;;;;;5.38;0.88;;;;;;;;;;5053210;28;20049;-79
2023/03/05 11:41:10;;;;;;;3.45;0.90;;;;;;;;;;5053717;28;20410;-77
2023/03/05 11:43:37;;;;;;;3.00;0.73;;;;;;;;;;5054562;28;20501;-77
2023/03/05 11:46:04;;;;;;;3.35;0.80;;;;;;;;;;5054625;28;20060;-77
2023/03/05 11:48:34;;;;;;;6.10;1.20;;;;;;;;;;5053995;28;20115;-77
2023/03/05 11:51:01;;;;;;;4.93;1.17;;;;;;;;;;5039858;28;20048;-77
2023/03/05 11:53:28;;;;;;;5.68;1.00;;;;;;;;;;5053326;28;20079;-77
2023/03/05 11:55:54;;;;;;;3.42;0.90;;;;;;;;;;5052568;28;20410;-77
2023/03/05 11:58:35;;;;;;;4.78;0.95;;;;;;;;;;5052990;28;20055;-79
2023/03/05 12:01:03;;;;;;;3.97;0.70;;;;;;;;;;5052907;28;20040;-78
2023/03/05 12:03:31;;;;;;;7.40;0.90;;;;;;;;;;5052813;28;20033;-79
2023/03/05 12:06:09;;;;;;;4.10;0.68;;;;;;;;;;5052860;28;20041;-78
2023/03/05 12:08:38;;;;;;;4.13;0.82;;;;;;;;;;5036181;28;20056;-76
2023/03/05 12:11:06;;;;;;;3.75;0.85;;;;;;;;;;5036293;28;20098;-77
2023/03/05 12:13:38;;;;;;;3.10;0.80;;;;;;;;;;5052844;28;20049;-77
2023/03/05 12:16:14;;;;;;;4.57;0.70;;;;;;;;;;5073442;28;20067;-77
2023/03/05 12:18:43;;;;;;;2.90;0.73;;;;;;;;;;5052904;28;20047;-76
2023/03/05 12:21:25;;;;;;;3.90;0.63;;;;;;;;;;5041052;28;20490;-76
2023/03/05 12:23:53;;;;;;;5.68;0.82;;;;;;;;;;5054033;28;20044;-76
2023/03/05 12:26:39;;;;;;;4.30;0.60;;;;;;;;;;5052426;28;20057;-76
2023/03/05 12:29:25;;;;;;;6.85;0.80;;;;;;;;;;5074414;28;20045;-77
2023/03/05 12:31:51;;;;;;;3.90;0.70;;;;;;;;;;5052987;28;20499;-77
2023/03/05 12:34:36;;;;;;;2.78;0.60;;;;;;;;;;5019804;28;20127;-76
2023/03/05 12:37:03;;;;;;;2.80;0.60;;;;;;;;;;5055591;28;20048;-77
2023/03/05 12:39:46;;;;;;;3.55;0.75;;;;;;;;;;5062754;28;20041;-76
2023/03/05 12:42:27;;;;;;;2.65;0.80;;;;;;;;;;5052419;28;20523;-76
2023/03/05 12:45:10;;;;;;;4.25;0.80;;;;;;;;;;5035886;28;20498;-76
2023/03/05 12:47:36;;;;;;;7.20;0.77;;;;;;;;;;5053349;28;20041;-77
2023/03/05 12:50:03;;;;;;;5.80;0.82;;;;;;;;;;5052276;28;20438;-74
2023/03/05 12:52:31;;;;;;;3.95;1.00;;;;;;;;;;5052008;28;20037;-76
2023/03/05 12:55:20;;;;;;;8.13;1.00;;;;;;;;;;5053142;28;20048;-76
2023/03/05 12:57:49;;;;;;;4.13;0.80;;;;;;;;;;5034948;28;20048;-76
2023/03/05 13:00:20;;;;;;;6.03;0.77;;;;;;;;;;5051751;28;20063;-75
2023/03/05 13:02:48;;;;;;;2.50;0.80;;;;;;;;;;5051559;28;20048;-77
2023/03/05 13:05:19;;;;;;;6.18;0.88;;;;;;;;;;5053135;28;20037;-76
2023/03/05 13:07:45;;;;;;;5.70;0.98;;;;;;;;;;5051469;28;20041;-76
2023/03/05 13:10:25;;;;;;;3.40;0.73;;;;;;;;;;5051567;28;20094;-77
2023/03/05 13:12:52;;;;;;;5.28;0.95;;;;;;;;;;5050930;28;20051;-78
2023/03/05 13:15:18;;;;;;;7.07;0.85;;;;;;;;;;5051727;28;20895;-77
2023/03/05 13:17:53;;;;;;;2.53;0.55;;;;;;;;;;5051556;28;20457;-77
2023/03/05 13:20:36;;;;;;;2.75;0.70;;;;;;;;;;5051885;28;20102;-76
2023/03/05 13:23:17;;;;;;;2.70;0.70;;;;;;;;;;5038432;28;20507;-76
2023/03/05 13:25:44;;;;;;;7.38;1.00;;;;;;;;;;5051290;28;20056;-76
2023/03/05 13:28:14;;;;;;;7.72;1.38;;;;;;;;;;5051345;28;20107;-76
2023/03/05 13:30:44;;;;;;;6.45;0.95;;;;;;;;;;5054229;28;20040;-77
2023/03/05 13:33:16;;;;;;;4.65;0.70;;;;;;;;;;5051610;28;20039;-76
2023/03/05 13:35:46;;;;;;;5.57;0.70;;;;;;;;;;5051211;28;20071;-76
2023/03/05 13:38:21;;;;;;;3.67;0.85;;;;;;;;;;5052662;28;20076;-76
2023/03/05 13:41:00;;;;;;;4.57;0.82;;;;;;;;;;5055127;28;20646;-76
2023/03/05 13:43:26;;;;;;;3.92;0.70;;;;;;;;;;5059682;28;20073;-76
2023/03/05 13:45:55;;;;;;;6.60;0.98;;;;;;;;;;5050880;28;20044;-75
2023/03/05 13:48:21;;;;;;;3.58;0.88;;;;;;;;;;5062583;28;20045;-76
2023/03/05 13:50:54;;;;;;;4.20;0.90;;;;;;;;;;5050960;28;20045;-76
2023/03/05 13:53:30;;;;;;;5.90;0.90;;;;;;;;;;5052457;28;20040;-76
2023/03/05 13:55:58;;;;;;;6.40;0.93;;;;;;;;;;5034285;28;20037;-76
2023/03/05 13:58:47;;;;;;;3.35;0.68;;;;;;;;;;5052244;28;20041;-75
2023/03/05 14:01:25;;;;;;;4.88;0.70;;;;;;;;;;5040869;28;20045;-77
2023/03/05 14:03:54;;;;;;;8.52;1.10;;;;;;;;;;5049583;28;20037;-77
2023/03/05 14:06:21;;;;;;;4.00;0.70;;;;;;;;;;5050980;28;20141;-77
2023/03/05 14:08:59;;;;;;;4.55;0.70;;;;;;;;;;5034479;28;20049;-77
2023/03/05 14:11:25;;;;;;;4.38;0.90;;;;;;;;;;5051300;28;20056;-78
2023/03/05 14:14:05;;;;;;;7.80;1.00;;;;;;;;;;5052361;28;20507;-77
2023/03/05 14:16:32;;;;;;;3.50;0.60;;;;;;;;;;5050903;28;20039;-77
2023/03/05 14:19:03;;;;;;;4.43;1.52;;;;;;;;;;5067933;28;20534;-77
2023/03/05 14:21:43;;;;;;;5.20;0.93;;;;;;;;;;5052113;28;20045;-77
2023/03/05 14:24:14;;;;;;;6.53;0.80;;;;;;;;;;5054862;28;20145;-77
2023/03/05 14:26:51;;;;;;;4.53;0.90;;;;;;;;;;5056017;28;20053;-76
2023/03/05 14:29:19;;;;;;;3.83;0.75;;;;;;;;;;5038360;28;20403;-76
2023/03/05 14:31:49;;;;;;;3.88;0.70;;;;;;;;;;5054587;28;20044;-76
2023/03/05 14:34:25;;;;;;;4.28;0.77;;;;;;;;;;5038216;28;20487;-76
2023/03/05 14:36:52;;;;;;;5.93;0.80;;;;;;;;;;5054818;28;20059;-77
2023/03/05 14:39:29;;;;;;;4.97;0.73;;;;;;;;;;5054859;28;20045;-76
2023/03/05 14:41:55;;;;;;;4.75;0.70;;;;;;;;;;5054233;28;20116;-76
2023/03/05 14:44:24;;;;;;;3.83;0.70;;;;;;;;;;5054887;28;20071;-75
2023/03/05 14:46:50;;;;;;;2.00;0.70;;;;;;;;;;5055289;28;20546;-75
2023/03/05 14:49:17;;;;;;;6.63;0.80;;;;;;;;;;5055631;28;20033;-76
2023/03/05 14:51:45;;;;;;;2.55;0.55;;;;;;;;;;5054437;28;20091;-77